sensor_id;sensor_type;location;lat;lon;timestamp;P1;durP1;ratioP1;P2;durP2;ratioP2
59872;SDS011;50750;51.636;4.948;2023-03-23T00:00:10;4.50;;;1.70;;
59872;SDS011;50750;51.636;4.948;2023-03-23T00:02:57;3.20;;;1.60;;
59872;SDS011;50750;51.636;4.948;2023-03-23T00:05:23;3.30;;;1.70;;
59872;SDS011;50750;51.636;4.948;2023-03-23T00:07:50;2.60;;;1.40;;
59872;SDS011;50750;51.636;4.948;2023-03-23T00:10:18;3.60;;;1.70;;
59872;SDS011;50750;51.636;4.948;2023-03-23T00:12:44;3.80;;;1.70;;
59872;SDS011;50750;51.636;4.948;2023-03-23T00:15:15;3.60;;;1.70;;
59872;SDS011;50750;51.636;4.948;2023-03-23T00:17:43;5.30;;;1.90;;
59872;SDS011;50750;51.636;4.948;2023-03-23T00:20:09;4.30;;;2.00;;
59872;SDS011;50750;51.636;4.948;2023-03-23T00:22:38;5.10;;;1.70;;
59872;SDS011;50750;51.636;4.948;2023-03-23T00:25:05;2.80;;;1.60;;
59872;SDS011;50750;51.636;4.948;2023-03-23T00:27:34;3.10;;;1.40;;
59872;SDS011;50750;51.636;4.948;2023-03-23T00:30:01;3.30;;;1.60;;
59872;SDS011;50750;51.636;4.948;2023-03-23T00:32:27;3.70;;;1.40;;
59872;SDS011;50750;51.636;4.948;2023-03-23T00:34:55;3.00;;;1.60;;
59872;SDS011;50750;51.636;4.948;2023-03-23T00:37:25;4.10;;;1.70;;
59872;SDS011;50750;51.636;4.948;2023-03-23T00:39:52;3.90;;;1.70;;
59872;SDS011;50750;51.636;4.948;2023-03-23T00:42:23;3.00;;;1.70;;
59872;SDS011;50750;51.636;4.948;2023-03-23T00:44:51;3.10;;;1.80;;
59872;SDS011;50750;51.636;4.948;2023-03-23T00:47:26;3.70;;;1.80;;
59872;SDS011;50750;51.636;4.948;2023-03-23T00:49:53;3.10;;;1.60;;
59872;SDS011;50750;51.636;4.948;2023-03-23T00:52:22;4.30;;;1.70;;
59872;SDS011;50750;51.636;4.948;2023-03-23T00:54:49;2.60;;;1.50;;
59872;SDS011;50750;51.636;4.948;2023-03-23T00:57:15;2.90;;;1.50;;
59872;SDS011;50750;51.636;4.948;2023-03-23T00:59:43;2.40;;;1.30;;
59872;SDS011;50750;51.636;4.948;2023-03-23T01:02:10;3.40;;;1.50;;
59872;SDS011;50750;51.636;4.948;2023-03-23T01:04:38;2.70;;;1.50;;
59872;SDS011;50750;51.636;4.948;2023-03-23T01:07:04;2.80;;;1.50;;
59872;SDS011;50750;51.636;4.948;2023-03-23T01:09:31;2.90;;;1.60;;
59872;SDS011;50750;51.636;4.948;2023-03-23T01:11:59;3.10;;;1.50;;
59872;SDS011;50750;51.636;4.948;2023-03-23T01:14:25;3.20;;;1.60;;
59872;SDS011;50750;51.636;4.948;2023-03-23T01:16:52;3.40;;;1.60;;
59872;SDS011;50750;51.636;4.948;2023-03-23T01:19:19;3.50;;;1.50;;
59872;SDS011;50750;51.636;4.948;2023-03-23T01:21:46;3.40;;;1.40;;
59872;SDS011;50750;51.636;4.948;2023-03-23T01:24:12;2.90;;;1.40;;
59872;SDS011;50750;51.636;4.948;2023-03-23T01:26:39;2.40;;;1.60;;
59872;SDS011;50750;51.636;4.948;2023-03-23T01:29:06;3.50;;;1.30;;
59872;SDS011;50750;51.636;4.948;2023-03-23T01:31:32;2.60;;;1.50;;
59872;SDS011;50750;51.636;4.948;2023-03-23T01:34:00;3.50;;;1.70;;
59872;SDS011;50750;51.636;4.948;2023-03-23T01:36:27;3.50;;;1.70;;
59872;SDS011;50750;51.636;4.948;2023-03-23T01:38:59;3.70;;;1.70;;
59872;SDS011;50750;51.636;4.948;2023-03-23T01:41:28;3.40;;;1.60;;
59872;SDS011;50750;51.636;4.948;2023-03-23T01:46:36;2.80;;;1.50;;
59872;SDS011;50750;51.636;4.948;2023-03-23T01:49:06;3.30;;;1.60;;
59872;SDS011;50750;51.636;4.948;2023-03-23T01:51:36;2.30;;;1.20;;
59872;SDS011;50750;51.636;4.948;2023-03-23T01:54:11;3.70;;;1.40;;
59872;SDS011;50750;51.636;4.948;2023-03-23T01:56:41;3.00;;;1.40;;
59872;SDS011;50750;51.636;4.948;2023-03-23T01:59:13;2.70;;;1.60;;
59872;SDS011;50750;51.636;4.948;2023-03-23T02:01:41;3.00;;;1.70;;
59872;SDS011;50750;51.636;4.948;2023-03-23T02:04:14;2.80;;;1.50;;
59872;SDS011;50750;51.636;4.948;2023-03-23T02:06:43;3.00;;;1.50;;
59872;SDS011;50750;51.636;4.948;2023-03-23T02:09:11;3.60;;;1.80;;
59872;SDS011;50750;51.636;4.948;2023-03-23T02:11:48;4.40;;;1.70;;
59872;SDS011;50750;51.636;4.948;2023-03-23T02:14:16;3.00;;;1.50;;
59872;SDS011;50750;51.636;4.948;2023-03-23T02:16:45;2.80;;;1.50;;
59872;SDS011;50750;51.636;4.948;2023-03-23T02:24:58;2.50;;;1.40;;
59872;SDS011;50750;51.636;4.948;2023-03-23T02:31:04;3.10;;;1.40;;
59872;SDS011;50750;51.636;4.948;2023-03-23T02:38:40;2.20;;;1.40;;
59872;SDS011;50750;51.636;4.948;2023-03-23T02:41:18;2.90;;;1.60;;
59872;SDS011;50750;51.636;4.948;2023-03-23T02:43:47;3.50;;;1.70;;
59872;SDS011;50750;51.636;4.948;2023-03-23T02:46:16;3.20;;;1.50;;
59872;SDS011;50750;51.636;4.948;2023-03-23T02:48:43;2.40;;;1.40;;
59872;SDS011;50750;51.636;4.948;2023-03-23T02:53:40;2.40;;;1.10;;
59872;SDS011;50750;51.636;4.948;2023-03-23T02:58:36;2.50;;;1.30;;
59872;SDS011;50750;51.636;4.948;2023-03-23T03:04:15;2.60;;;1.30;;
59872;SDS011;50750;51.636;4.948;2023-03-23T03:11:58;3.00;;;1.40;;
59872;SDS011;50750;51.636;4.948;2023-03-23T03:14:33;2.80;;;1.60;;
59872;SDS011;50750;51.636;4.948;2023-03-23T03:17:17;2.80;;;1.30;;
59872;SDS011;50750;51.636;4.948;2023-03-23T03:19:50;2.70;;;1.50;;
59872;SDS011;50750;51.636;4.948;2023-03-23T03:22:23;1.90;;;1.20;;
59872;SDS011;50750;51.636;4.948;2023-03-23T03:24:55;2.60;;;1.20;;
59872;SDS011;50750;51.636;4.948;2023-03-23T03:27:23;2.50;;;1.30;;
59872;SDS011;50750;51.636;4.948;2023-03-23T03:29:53;3.60;;;1.40;;
59872;SDS011;50750;51.636;4.948;2023-03-23T03:32:26;2.70;;;1.40;;
59872;SDS011;50750;51.636;4.948;2023-03-23T03:35:01;2.70;;;1.40;;
59872;SDS011;50750;51.636;4.948;2023-03-23T03:37:36;2.20;;;1.10;;
59872;SDS011;50750;51.636;4.948;2023-03-23T03:40:05;4.10;;;1.30;;
59872;SDS011;50750;51.636;4.948;2023-03-23T03:42:38;3.50;;;1.40;;
59872;SDS011;50750;51.636;4.948;2023-03-23T03:45:06;3.30;;;1.30;;
59872;SDS011;50750;51.636;4.948;2023-03-23T03:47:35;3.50;;;1.40;;
59872;SDS011;50750;51.636;4.948;2023-03-23T03:50:01;3.10;;;1.40;;
59872;SDS011;50750;51.636;4.948;2023-03-23T03:52:29;2.40;;;1.10;;
59872;SDS011;50750;51.636;4.948;2023-03-23T03:54:55;3.50;;;1.30;;
59872;SDS011;50750;51.636;4.948;2023-03-23T03:57:23;2.50;;;1.20;;
59872;SDS011;50750;51.636;4.948;2023-03-23T03:59:50;3.60;;;1.40;;
59872;SDS011;50750;51.636;4.948;2023-03-23T04:02:17;3.20;;;1.20;;
59872;SDS011;50750;51.636;4.948;2023-03-23T04:04:46;3.70;;;1.50;;
59872;SDS011;50750;51.636;4.948;2023-03-23T04:07:14;3.50;;;1.50;;
59872;SDS011;50750;51.636;4.948;2023-03-23T04:09:44;2.70;;;1.20;;
59872;SDS011;50750;51.636;4.948;2023-03-23T04:12:14;2.40;;;1.30;;
59872;SDS011;50750;51.636;4.948;2023-03-23T04:14:41;3.50;;;1.20;;
59872;SDS011;50750;51.636;4.948;2023-03-23T04:17:08;2.90;;;1.10;;
59872;SDS011;50750;51.636;4.948;2023-03-23T04:19:37;3.40;;;1.40;;
59872;SDS011;50750;51.636;4.948;2023-03-23T04:22:05;3.30;;;1.30;;
59872;SDS011;50750;51.636;4.948;2023-03-23T04:24:32;3.60;;;1.20;;
59872;SDS011;50750;51.636;4.948;2023-03-23T04:26:59;1.90;;;1.00;;
59872;SDS011;50750;51.636;4.948;2023-03-23T04:29:26;2.20;;;1.10;;
59872;SDS011;50750;51.636;4.948;2023-03-23T04:31:53;4.40;;;1.30;;
59872;SDS011;50750;51.636;4.948;2023-03-23T04:34:22;2.60;;;1.00;;
59872;SDS011;50750;51.636;4.948;2023-03-23T04:36:49;2.50;;;1.30;;
59872;SDS011;50750;51.636;4.948;2023-03-23T04:39:16;3.70;;;1.30;;
59872;SDS011;50750;51.636;4.948;2023-03-23T04:41:44;3.40;;;1.30;;
59872;SDS011;50750;51.636;4.948;2023-03-23T04:44:12;2.60;;;1.10;;
59872;SDS011;50750;51.636;4.948;2023-03-23T04:46:44;3.80;;;1.30;;
59872;SDS011;50750;51.636;4.948;2023-03-23T04:49:16;3.90;;;1.30;;
59872;SDS011;50750;51.636;4.948;2023-03-23T04:51:47;3.10;;;1.20;;
59872;SDS011;50750;51.636;4.948;2023-03-23T04:54:14;2.50;;;0.90;;
59872;SDS011;50750;51.636;4.948;2023-03-23T04:56:41;2.80;;;1.00;;
59872;SDS011;50750;51.636;4.948;2023-03-23T04:59:07;3.40;;;1.00;;
59872;SDS011;50750;51.636;4.948;2023-03-23T05:01:34;2.30;;;1.00;;
59872;SDS011;50750;51.636;4.948;2023-03-23T05:04:03;3.70;;;1.20;;
59872;SDS011;50750;51.636;4.948;2023-03-23T05:06:30;2.50;;;1.10;;
59872;SDS011;50750;51.636;4.948;2023-03-23T05:08:57;3.40;;;1.20;;
59872;SDS011;50750;51.636;4.948;2023-03-23T05:11:24;5.10;;;1.40;;
59872;SDS011;50750;51.636;4.948;2023-03-23T05:13:51;4.30;;;1.10;;
59872;SDS011;50750;51.636;4.948;2023-03-23T05:16:17;3.20;;;1.20;;
59872;SDS011;50750;51.636;4.948;2023-03-23T05:18:44;2.50;;;1.10;;
59872;SDS011;50750;51.636;4.948;2023-03-23T05:21:12;5.90;;;1.50;;
59872;SDS011;50750;51.636;4.948;2023-03-23T05:23:40;3.60;;;1.20;;
59872;SDS011;50750;51.636;4.948;2023-03-23T05:26:07;2.80;;;1.10;;
59872;SDS011;50750;51.636;4.948;2023-03-23T05:28:33;4.40;;;1.20;;
59872;SDS011;50750;51.636;4.948;2023-03-23T05:31:00;2.60;;;0.90;;
59872;SDS011;50750;51.636;4.948;2023-03-23T05:33:27;3.60;;;1.40;;
59872;SDS011;50750;51.636;4.948;2023-03-23T05:35:53;3.20;;;1.20;;
59872;SDS011;50750;51.636;4.948;2023-03-23T05:38:21;2.20;;;1.00;;
59872;SDS011;50750;51.636;4.948;2023-03-23T05:40:48;3.10;;;1.00;;
59872;SDS011;50750;51.636;4.948;2023-03-23T05:43:15;3.30;;;1.20;;
59872;SDS011;50750;51.636;4.948;2023-03-23T05:45:41;3.00;;;1.10;;
59872;SDS011;50750;51.636;4.948;2023-03-23T05:48:08;3.40;;;1.00;;
59872;SDS011;50750;51.636;4.948;2023-03-23T05:50:35;2.90;;;1.10;;
59872;SDS011;50750;51.636;4.948;2023-03-23T05:53:02;2.90;;;1.20;;
59872;SDS011;50750;51.636;4.948;2023-03-23T05:55:30;4.60;;;1.20;;
59872;SDS011;50750;51.636;4.948;2023-03-23T05:57:58;3.00;;;1.10;;
59872;SDS011;50750;51.636;4.948;2023-03-23T06:00:25;4.30;;;1.30;;
59872;SDS011;50750;51.636;4.948;2023-03-23T06:02:55;3.60;;;1.10;;
59872;SDS011;50750;51.636;4.948;2023-03-23T06:05:23;3.70;;;1.10;;
59872;SDS011;50750;51.636;4.948;2023-03-23T06:07:52;2.80;;;1.10;;
59872;SDS011;50750;51.636;4.948;2023-03-23T06:10:20;2.60;;;1.10;;
59872;SDS011;50750;51.636;4.948;2023-03-23T06:12:47;2.50;;;1.00;;
59872;SDS011;50750;51.636;4.948;2023-03-23T06:15:13;4.30;;;1.00;;
59872;SDS011;50750;51.636;4.948;2023-03-23T06:17:40;2.90;;;1.00;;
59872;SDS011;50750;51.636;4.948;2023-03-23T06:20:07;3.70;;;1.20;;
59872;SDS011;50750;51.636;4.948;2023-03-23T06:22:36;2.70;;;1.10;;
59872;SDS011;50750;51.636;4.948;2023-03-23T06:25:04;2.20;;;0.90;;
59872;SDS011;50750;51.636;4.948;2023-03-23T06:27:32;2.70;;;1.10;;
59872;SDS011;50750;51.636;4.948;2023-03-23T06:29:59;2.50;;;0.90;;
59872;SDS011;50750;51.636;4.948;2023-03-23T06:32:25;4.10;;;1.10;;
59872;SDS011;50750;51.636;4.948;2023-03-23T06:34:53;3.70;;;1.30;;
59872;SDS011;50750;51.636;4.948;2023-03-23T06:37:20;3.20;;;1.00;;
59872;SDS011;50750;51.636;4.948;2023-03-23T06:39:47;5.60;;;1.30;;
59872;SDS011;50750;51.636;4.948;2023-03-23T06:42:14;4.40;;;1.20;;
59872;SDS011;50750;51.636;4.948;2023-03-23T06:44:41;2.90;;;1.20;;
59872;SDS011;50750;51.636;4.948;2023-03-23T06:47:07;3.70;;;1.20;;
59872;SDS011;50750;51.636;4.948;2023-03-23T06:49:35;2.80;;;1.00;;
59872;SDS011;50750;51.636;4.948;2023-03-23T06:52:02;3.90;;;1.10;;
59872;SDS011;50750;51.636;4.948;2023-03-23T06:54:29;4.10;;;1.20;;
59872;SDS011;50750;51.636;4.948;2023-03-23T06:56:56;2.50;;;1.00;;
59872;SDS011;50750;51.636;4.948;2023-03-23T06:59:22;3.70;;;0.90;;
59872;SDS011;50750;51.636;4.948;2023-03-23T07:01:49;2.30;;;1.10;;
59872;SDS011;50750;51.636;4.948;2023-03-23T07:04:16;4.30;;;1.30;;
59872;SDS011;50750;51.636;4.948;2023-03-23T07:06:43;3.30;;;1.20;;
59872;SDS011;50750;51.636;4.948;2023-03-23T07:09:09;4.80;;;1.20;;
59872;SDS011;50750;51.636;4.948;2023-03-23T07:11:36;3.90;;;1.10;;
59872;SDS011;50750;51.636;4.948;2023-03-23T07:14:03;3.50;;;1.20;;
59872;SDS011;50750;51.636;4.948;2023-03-23T07:16:30;5.20;;;1.40;;
59872;SDS011;50750;51.636;4.948;2023-03-23T07:18:58;3.10;;;1.10;;
59872;SDS011;50750;51.636;4.948;2023-03-23T07:21:25;2.50;;;1.30;;
59872;SDS011;50750;51.636;4.948;2023-03-23T07:23:52;2.90;;;0.90;;
59872;SDS011;50750;51.636;4.948;2023-03-23T07:26:19;3.80;;;1.30;;
59872;SDS011;50750;51.636;4.948;2023-03-23T07:28:45;2.80;;;0.90;;
59872;SDS011;50750;51.636;4.948;2023-03-23T07:31:13;4.40;;;1.30;;
59872;SDS011;50750;51.636;4.948;2023-03-23T07:33:39;4.30;;;1.20;;
59872;SDS011;50750;51.636;4.948;2023-03-23T07:36:06;4.10;;;1.50;;
59872;SDS011;50750;51.636;4.948;2023-03-23T07:38:33;4.10;;;1.00;;
59872;SDS011;50750;51.636;4.948;2023-03-23T07:40:59;2.60;;;0.90;;
59872;SDS011;50750;51.636;4.948;2023-03-23T07:43:26;2.40;;;1.10;;
59872;SDS011;50750;51.636;4.948;2023-03-23T07:45:53;2.70;;;1.00;;
59872;SDS011;50750;51.636;4.948;2023-03-23T07:48:19;3.40;;;1.20;;
59872;SDS011;50750;51.636;4.948;2023-03-23T07:50:46;2.70;;;1.10;;
59872;SDS011;50750;51.636;4.948;2023-03-23T07:53:13;2.40;;;1.10;;
59872;SDS011;50750;51.636;4.948;2023-03-23T07:55:40;2.40;;;0.90;;
59872;SDS011;50750;51.636;4.948;2023-03-23T07:58:06;3.00;;;1.00;;
59872;SDS011;50750;51.636;4.948;2023-03-23T08:00:34;2.70;;;1.10;;
59872;SDS011;50750;51.636;4.948;2023-03-23T08:03:04;3.60;;;1.10;;
59872;SDS011;50750;51.636;4.948;2023-03-23T08:05:32;2.90;;;1.10;;
59872;SDS011;50750;51.636;4.948;2023-03-23T08:08:00;4.40;;;1.30;;
59872;SDS011;50750;51.636;4.948;2023-03-23T08:10:27;2.90;;;0.90;;
59872;SDS011;50750;51.636;4.948;2023-03-23T08:12:55;2.90;;;1.10;;
59872;SDS011;50750;51.636;4.948;2023-03-23T08:15:22;2.10;;;0.90;;
59872;SDS011;50750;51.636;4.948;2023-03-23T08:17:49;3.40;;;1.10;;
59872;SDS011;50750;51.636;4.948;2023-03-23T08:20:17;2.90;;;1.00;;
59872;SDS011;50750;51.636;4.948;2023-03-23T08:22:55;1.80;;;0.80;;
59872;SDS011;50750;51.636;4.948;2023-03-23T08:25:23;2.10;;;1.00;;
59872;SDS011;50750;51.636;4.948;2023-03-23T08:27:53;2.60;;;0.90;;
59872;SDS011;50750;51.636;4.948;2023-03-23T08:30:21;3.40;;;1.20;;
59872;SDS011;50750;51.636;4.948;2023-03-23T08:32:48;3.50;;;0.90;;
59872;SDS011;50750;51.636;4.948;2023-03-23T08:35:16;2.00;;;1.10;;
59872;SDS011;50750;51.636;4.948;2023-03-23T08:37:44;2.60;;;1.00;;
59872;SDS011;50750;51.636;4.948;2023-03-23T08:40:12;2.80;;;0.90;;
59872;SDS011;50750;51.636;4.948;2023-03-23T08:42:41;3.50;;;1.10;;
59872;SDS011;50750;51.636;4.948;2023-03-23T08:45:10;2.10;;;0.90;;
59872;SDS011;50750;51.636;4.948;2023-03-23T08:47:38;2.60;;;0.90;;
59872;SDS011;50750;51.636;4.948;2023-03-23T08:50:05;2.50;;;0.90;;
59872;SDS011;50750;51.636;4.948;2023-03-23T08:52:33;3.40;;;0.90;;
59872;SDS011;50750;51.636;4.948;2023-03-23T08:55:00;2.80;;;1.00;;
59872;SDS011;50750;51.636;4.948;2023-03-23T08:57:27;3.20;;;1.20;;
59872;SDS011;50750;51.636;4.948;2023-03-23T08:59:55;2.60;;;1.10;;
59872;SDS011;50750;51.636;4.948;2023-03-23T09:02:26;2.40;;;1.00;;
59872;SDS011;50750;51.636;4.948;2023-03-23T09:04:53;2.30;;;1.10;;
59872;SDS011;50750;51.636;4.948;2023-03-23T09:07:20;6.50;;;1.20;;
59872;SDS011;50750;51.636;4.948;2023-03-23T09:09:46;2.40;;;1.00;;
59872;SDS011;50750;51.636;4.948;2023-03-23T09:12:13;3.70;;;1.00;;
59872;SDS011;50750;51.636;4.948;2023-03-23T09:14:40;2.50;;;0.90;;
59872;SDS011;50750;51.636;4.948;2023-03-23T09:17:06;2.90;;;0.90;;
59872;SDS011;50750;51.636;4.948;2023-03-23T09:19:33;3.80;;;0.90;;
59872;SDS011;50750;51.636;4.948;2023-03-23T09:22:01;2.10;;;0.90;;
59872;SDS011;50750;51.636;4.948;2023-03-23T09:24:28;4.30;;;1.20;;
59872;SDS011;50750;51.636;4.948;2023-03-23T09:26:56;4.30;;;1.10;;
59872;SDS011;50750;51.636;4.948;2023-03-23T09:29:25;1.80;;;0.80;;
59872;SDS011;50750;51.636;4.948;2023-03-23T09:31:53;3.60;;;1.00;;
59872;SDS011;50750;51.636;4.948;2023-03-23T09:34:20;3.40;;;1.00;;
59872;SDS011;50750;51.636;4.948;2023-03-23T09:36:48;4.10;;;1.20;;
59872;SDS011;50750;51.636;4.948;2023-03-23T09:39:15;3.00;;;1.20;;
59872;SDS011;50750;51.636;4.948;2023-03-23T09:52:46;4.30;;;1.00;;
59872;SDS011;50750;51.636;4.948;2023-03-23T09:55:18;3.80;;;1.10;;
59872;SDS011;50750;51.636;4.948;2023-03-23T10:00:24;3.40;;;1.00;;
59872;SDS011;50750;51.636;4.948;2023-03-23T10:02:55;4.90;;;1.10;;
59872;SDS011;50750;51.636;4.948;2023-03-23T10:05:31;3.30;;;0.90;;
59872;SDS011;50750;51.636;4.948;2023-03-23T10:08:02;3.90;;;1.10;;
59872;SDS011;50750;51.636;4.948;2023-03-23T10:10:47;4.40;;;1.20;;
59872;SDS011;50750;51.636;4.948;2023-03-23T10:16:04;4.20;;;1.10;;
59872;SDS011;50750;51.636;4.948;2023-03-23T10:21:11;3.40;;;1.10;;
59872;SDS011;50750;51.636;4.948;2023-03-23T10:24:07;3.40;;;1.20;;
59872;SDS011;50750;51.636;4.948;2023-03-23T10:26:47;5.60;;;1.10;;
59872;SDS011;50750;51.636;4.948;2023-03-23T10:29:35;3.00;;;1.00;;
59872;SDS011;50750;51.636;4.948;2023-03-23T10:32:17;2.30;;;1.00;;
59872;SDS011;50750;51.636;4.948;2023-03-23T10:34:50;3.50;;;1.00;;
59872;SDS011;50750;51.636;4.948;2023-03-23T10:37:23;3.00;;;1.10;;
59872;SDS011;50750;51.636;4.948;2023-03-23T10:39:57;3.70;;;1.00;;
59872;SDS011;50750;51.636;4.948;2023-03-23T10:44:59;3.90;;;1.20;;
59872;SDS011;50750;51.636;4.948;2023-03-23T10:47:37;3.10;;;1.00;;
59872;SDS011;50750;51.636;4.948;2023-03-23T10:50:10;2.60;;;1.00;;
59872;SDS011;50750;51.636;4.948;2023-03-23T10:52:41;3.40;;;1.00;;
59872;SDS011;50750;51.636;4.948;2023-03-23T10:55:14;3.10;;;1.10;;
59872;SDS011;50750;51.636;4.948;2023-03-23T10:57:44;3.10;;;0.90;;
59872;SDS011;50750;51.636;4.948;2023-03-23T11:00:20;4.20;;;1.10;;
59872;SDS011;50750;51.636;4.948;2023-03-23T11:03:06;5.00;;;1.30;;
59872;SDS011;50750;51.636;4.948;2023-03-23T11:08:15;3.10;;;1.00;;
59872;SDS011;50750;51.636;4.948;2023-03-23T11:10:49;3.70;;;1.20;;
59872;SDS011;50750;51.636;4.948;2023-03-23T11:13:19;2.70;;;0.90;;
59872;SDS011;50750;51.636;4.948;2023-03-23T11:15:47;2.50;;;1.00;;
59872;SDS011;50750;51.636;4.948;2023-03-23T11:18:22;4.30;;;1.20;;
59872;SDS011;50750;51.636;4.948;2023-03-23T11:21:02;4.90;;;1.20;;
59872;SDS011;50750;51.636;4.948;2023-03-23T11:23:34;3.10;;;0.90;;
59872;SDS011;50750;51.636;4.948;2023-03-23T11:28:36;2.60;;;0.90;;
59872;SDS011;50750;51.636;4.948;2023-03-23T11:31:09;3.50;;;1.00;;
59872;SDS011;50750;51.636;4.948;2023-03-23T11:33:47;3.50;;;1.20;;
59872;SDS011;50750;51.636;4.948;2023-03-23T11:38:43;4.20;;;1.30;;
59872;SDS011;50750;51.636;4.948;2023-03-23T11:41:11;3.60;;;0.90;;
59872;SDS011;50750;51.636;4.948;2023-03-23T11:43:39;2.30;;;1.00;;
59872;SDS011;50750;51.636;4.948;2023-03-23T11:46:15;5.40;;;1.20;;
59872;SDS011;50750;51.636;4.948;2023-03-23T11:49:12;2.50;;;0.80;;
59872;SDS011;50750;51.636;4.948;2023-03-23T11:52:11;4.20;;;1.10;;
59872;SDS011;50750;51.636;4.948;2023-03-23T11:54:57;3.30;;;0.80;;
59872;SDS011;50750;51.636;4.948;2023-03-23T11:57:31;4.00;;;1.10;;
59872;SDS011;50750;51.636;4.948;2023-03-23T11:59:58;2.50;;;1.10;;
59872;SDS011;50750;51.636;4.948;2023-03-23T12:05:41;2.60;;;1.10;;
59872;SDS011;50750;51.636;4.948;2023-03-23T12:11:05;3.00;;;0.90;;
59872;SDS011;50750;51.636;4.948;2023-03-23T12:13:46;4.00;;;1.10;;
59872;SDS011;50750;51.636;4.948;2023-03-23T12:19:19;2.80;;;0.90;;
59872;SDS011;50750;51.636;4.948;2023-03-23T12:22:39;2.80;;;1.00;;
59872;SDS011;50750;51.636;4.948;2023-03-23T12:27:45;2.10;;;0.90;;
59872;SDS011;50750;51.636;4.948;2023-03-23T12:33:17;2.30;;;1.00;;
59872;SDS011;50750;51.636;4.948;2023-03-23T12:35:57;4.70;;;1.20;;
59872;SDS011;50750;51.636;4.948;2023-03-23T12:43:51;2.50;;;0.90;;
59872;SDS011;50750;51.636;4.948;2023-03-23T12:49:18;4.30;;;1.80;;
59872;SDS011;50750;51.636;4.948;2023-03-23T12:55:20;2.40;;;1.10;;
59872;SDS011;50750;51.636;4.948;2023-03-23T12:57:55;3.00;;;1.00;;
59872;SDS011;50750;51.636;4.948;2023-03-23T13:00:28;2.90;;;1.00;;
59872;SDS011;50750;51.636;4.948;2023-03-23T13:06:26;3.40;;;1.00;;
59872;SDS011;50750;51.636;4.948;2023-03-23T13:11:35;3.00;;;1.00;;
59872;SDS011;50750;51.636;4.948;2023-03-23T13:16:52;3.40;;;1.20;;
59872;SDS011;50750;51.636;4.948;2023-03-23T13:22:36;3.70;;;1.20;;
59872;SDS011;50750;51.636;4.948;2023-03-23T13:25:17;2.30;;;0.90;;
59872;SDS011;50750;51.636;4.948;2023-03-23T13:27:56;2.30;;;1.00;;
59872;SDS011;50750;51.636;4.948;2023-03-23T13:30:25;3.30;;;0.90;;
59872;SDS011;50750;51.636;4.948;2023-03-23T13:33:04;2.00;;;0.90;;
59872;SDS011;50750;51.636;4.948;2023-03-23T13:35:34;4.00;;;1.10;;
59872;SDS011;50750;51.636;4.948;2023-03-23T13:38:18;4.70;;;1.20;;
59872;SDS011;50750;51.636;4.948;2023-03-23T13:40:46;3.10;;;1.00;;
59872;SDS011;50750;51.636;4.948;2023-03-23T13:43:13;2.20;;;0.80;;
59872;SDS011;50750;51.636;4.948;2023-03-23T13:45:51;2.40;;;0.90;;
59872;SDS011;50750;51.636;4.948;2023-03-23T13:48:21;3.80;;;1.00;;
59872;SDS011;50750;51.636;4.948;2023-03-23T13:50:56;2.80;;;0.90;;
59872;SDS011;50750;51.636;4.948;2023-03-23T13:53:29;2.40;;;0.80;;
59872;SDS011;50750;51.636;4.948;2023-03-23T13:56:20;4.00;;;1.00;;
59872;SDS011;50750;51.636;4.948;2023-03-23T13:59:08;3.00;;;1.00;;
59872;SDS011;50750;51.636;4.948;2023-03-23T14:01:40;3.20;;;1.00;;
59872;SDS011;50750;51.636;4.948;2023-03-23T14:04:13;2.30;;;0.90;;
59872;SDS011;50750;51.636;4.948;2023-03-23T14:06:42;3.30;;;1.10;;
59872;SDS011;50750;51.636;4.948;2023-03-23T14:09:13;3.00;;;1.10;;
59872;SDS011;50750;51.636;4.948;2023-03-23T14:11:57;2.30;;;0.80;;
59872;SDS011;50750;51.636;4.948;2023-03-23T14:14:44;3.40;;;1.10;;
59872;SDS011;50750;51.636;4.948;2023-03-23T14:19:47;3.20;;;0.90;;
59872;SDS011;50750;51.636;4.948;2023-03-23T14:23:00;3.80;;;1.00;;
59872;SDS011;50750;51.636;4.948;2023-03-23T14:25:17;4.50;;;1.10;;
59872;SDS011;50750;51.636;4.948;2023-03-23T14:27:47;2.10;;;1.00;;
59872;SDS011;50750;51.636;4.948;2023-03-23T14:30:15;3.40;;;1.00;;
59872;SDS011;50750;51.636;4.948;2023-03-23T14:32:48;4.30;;;1.20;;
59872;SDS011;50750;51.636;4.948;2023-03-23T14:37:53;3.80;;;1.20;;
59872;SDS011;50750;51.636;4.948;2023-03-23T14:40:23;4.20;;;1.10;;
59872;SDS011;50750;51.636;4.948;2023-03-23T14:42:53;3.70;;;1.10;;
59872;SDS011;50750;51.636;4.948;2023-03-23T14:45:21;3.10;;;1.10;;
59872;SDS011;50750;51.636;4.948;2023-03-23T14:47:51;2.40;;;1.10;;
59872;SDS011;50750;51.636;4.948;2023-03-23T14:53:13;2.70;;;0.90;;
59872;SDS011;50750;51.636;4.948;2023-03-23T14:55:48;3.10;;;1.10;;
59872;SDS011;50750;51.636;4.948;2023-03-23T14:58:19;2.80;;;1.00;;
59872;SDS011;50750;51.636;4.948;2023-03-23T15:00:53;4.30;;;1.20;;
59872;SDS011;50750;51.636;4.948;2023-03-23T15:03:25;3.00;;;1.20;;
59872;SDS011;50750;51.636;4.948;2023-03-23T15:05:58;3.70;;;1.10;;
59872;SDS011;50750;51.636;4.948;2023-03-23T15:08:30;3.90;;;1.30;;
59872;SDS011;50750;51.636;4.948;2023-03-23T15:11:11;3.80;;;1.10;;
59872;SDS011;50750;51.636;4.948;2023-03-23T15:13:42;3.70;;;1.20;;
59872;SDS011;50750;51.636;4.948;2023-03-23T15:16:33;2.90;;;1.10;;
59872;SDS011;50750;51.636;4.948;2023-03-23T15:19:00;4.40;;;1.40;;
59872;SDS011;50750;51.636;4.948;2023-03-23T15:21:33;3.60;;;1.20;;
59872;SDS011;50750;51.636;4.948;2023-03-23T15:24:02;3.20;;;1.10;;
59872;SDS011;50750;51.636;4.948;2023-03-23T15:27:32;3.60;;;1.20;;
59872;SDS011;50750;51.636;4.948;2023-03-23T15:29:59;3.10;;;1.00;;
59872;SDS011;50750;51.636;4.948;2023-03-23T15:35:12;3.30;;;1.10;;
59872;SDS011;50750;51.636;4.948;2023-03-23T15:37:44;5.10;;;1.20;;
59872;SDS011;50750;51.636;4.948;2023-03-23T15:40:16;5.20;;;1.40;;
59872;SDS011;50750;51.636;4.948;2023-03-23T15:42:45;2.90;;;1.10;;
59872;SDS011;50750;51.636;4.948;2023-03-23T15:52:39;2.60;;;1.20;;
59872;SDS011;50750;51.636;4.948;2023-03-23T15:55:26;5.10;;;1.40;;
59872;SDS011;50750;51.636;4.948;2023-03-23T15:57:55;3.40;;;0.90;;
59872;SDS011;50750;51.636;4.948;2023-03-23T16:00:24;4.20;;;1.20;;
59872;SDS011;50750;51.636;4.948;2023-03-23T16:02:53;2.90;;;1.20;;
59872;SDS011;50750;51.636;4.948;2023-03-23T16:05:22;4.00;;;1.50;;
59872;SDS011;50750;51.636;4.948;2023-03-23T16:07:49;4.40;;;1.20;;
59872;SDS011;50750;51.636;4.948;2023-03-23T16:10:18;5.80;;;1.40;;
59872;SDS011;50750;51.636;4.948;2023-03-23T16:12:46;3.90;;;1.30;;
59872;SDS011;50750;51.636;4.948;2023-03-23T16:15:13;3.70;;;1.10;;
59872;SDS011;50750;51.636;4.948;2023-03-23T16:17:41;4.50;;;1.30;;
59872;SDS011;50750;51.636;4.948;2023-03-23T16:20:15;2.50;;;1.10;;
59872;SDS011;50750;51.636;4.948;2023-03-23T16:22:44;2.70;;;1.00;;
59872;SDS011;50750;51.636;4.948;2023-03-23T16:25:12;4.30;;;1.20;;
59872;SDS011;50750;51.636;4.948;2023-03-23T16:27:40;2.80;;;1.10;;
59872;SDS011;50750;51.636;4.948;2023-03-23T16:30:17;3.70;;;1.30;;
59872;SDS011;50750;51.636;4.948;2023-03-23T16:32:48;2.30;;;0.90;;
59872;SDS011;50750;51.636;4.948;2023-03-23T16:35:16;2.50;;;1.00;;
59872;SDS011;50750;51.636;4.948;2023-03-23T16:37:44;3.80;;;1.10;;
59872;SDS011;50750;51.636;4.948;2023-03-23T16:40:16;3.60;;;1.10;;
59872;SDS011;50750;51.636;4.948;2023-03-23T16:42:44;3.40;;;1.20;;
59872;SDS011;50750;51.636;4.948;2023-03-23T16:45:11;3.70;;;1.20;;
59872;SDS011;50750;51.636;4.948;2023-03-23T16:47:40;3.10;;;1.20;;
59872;SDS011;50750;51.636;4.948;2023-03-23T16:50:08;3.70;;;1.40;;
59872;SDS011;50750;51.636;4.948;2023-03-23T16:52:39;4.30;;;1.30;;
59872;SDS011;50750;51.636;4.948;2023-03-23T16:55:07;3.50;;;1.30;;
59872;SDS011;50750;51.636;4.948;2023-03-23T16:57:35;2.80;;;1.10;;
59872;SDS011;50750;51.636;4.948;2023-03-23T17:00:04;4.40;;;1.20;;
59872;SDS011;50750;51.636;4.948;2023-03-23T17:02:34;4.00;;;1.10;;